sensor_id;sensor_type;location;lat;lon;timestamp;temperature;humidity
74822;DHT22;63353;48.702;8.884;2023-04-04T00:01:03;-1.90;99.90
74822;DHT22;63353;48.702;8.884;2023-04-04T00:03:28;-2.00;99.90
74822;DHT22;63353;48.702;8.884;2023-04-04T00:05:57;-1.90;99.90
74822;DHT22;63353;48.702;8.884;2023-04-04T00:08:22;-2.00;99.90
74822;DHT22;63353;48.702;8.884;2023-04-04T00:11:01;-2.10;99.90
74822;DHT22;63353;48.702;8.884;2023-04-04T00:13:27;-2.10;99.90
74822;DHT22;63353;48.702;8.884;2023-04-04T00:15:56;-2.10;99.90
74822;DHT22;63353;48.702;8.884;2023-04-04T00:18:25;-2.20;99.90
74822;DHT22;63353;48.702;8.884;2023-04-04T00:20:51;-2.20;99.90
74822;DHT22;63353;48.702;8.884;2023-04-04T00:23:23;-2.30;99.90
74822;DHT22;63353;48.702;8.884;2023-04-04T00:25:52;-2.30;99.90
74822;DHT22;63353;48.702;8.884;2023-04-04T00:28:21;-2.40;99.90
74822;DHT22;63353;48.702;8.884;2023-04-04T00:30:53;-2.40;99.90
74822;DHT22;63353;48.702;8.884;2023-04-04T00:33:19;-2.40;99.90
74822;DHT22;63353;48.702;8.884;2023-04-04T00:36:00;-2.50;99.90
74822;DHT22;63353;48.702;8.884;2023-04-04T00:38:30;-2.50;99.90
74822;DHT22;63353;48.702;8.884;2023-04-04T00:40:56;-2.50;99.90
74822;DHT22;63353;48.702;8.884;2023-04-04T00:43:26;-2.60;99.90
74822;DHT22;63353;48.702;8.884;2023-04-04T00:45:55;-2.50;99.90
74822;DHT22;63353;48.702;8.884;2023-04-04T00:48:24;-2.50;99.90
74822;DHT22;63353;48.702;8.884;2023-04-04T00:50:56;-2.60;99.90
74822;DHT22;63353;48.702;8.884;2023-04-04T00:53:27;-2.60;99.90
74822;DHT22;63353;48.702;8.884;2023-04-04T00:55:53;-2.70;99.90
74822;DHT22;63353;48.702;8.884;2023-04-04T00:58:23;-2.70;99.90
74822;DHT22;63353;48.702;8.884;2023-04-04T01:00:53;-2.70;99.90
74822;DHT22;63353;48.702;8.884;2023-04-04T01:03:22;-2.80;99.90
74822;DHT22;63353;48.702;8.884;2023-04-04T01:05:48;-2.80;99.90
74822;DHT22;63353;48.702;8.884;2023-04-04T01:08:18;-2.80;99.90
74822;DHT22;63353;48.702;8.884;2023-04-04T01:10:49;-2.90;99.90
74822;DHT22;63353;48.702;8.884;2023-04-04T01:13:18;-2.90;99.90
74822;DHT22;63353;48.702;8.884;2023-04-04T01:15:44;-3.00;99.90
74822;DHT22;63353;48.702;8.884;2023-04-04T01:18:12;-3.00;99.90
74822;DHT22;63353;48.702;8.884;2023-04-04T01:21:04;-3.10;99.90
74822;DHT22;63353;48.702;8.884;2023-04-04T01:26:13;-3.10;99.90
74822;DHT22;63353;48.702;8.884;2023-04-04T01:28:39;-3.10;99.90
74822;DHT22;63353;48.702;8.884;2023-04-04T01:31:30;-3.20;99.90
74822;DHT22;63353;48.702;8.884;2023-04-04T01:37:10;-3.10;99.90
74822;DHT22;63353;48.702;8.884;2023-04-04T01:39:50;-3.20;99.90
74822;DHT22;63353;48.702;8.884;2023-04-04T01:42:18;-3.10;99.90
74822;DHT22;63353;48.702;8.884;2023-04-04T01:44:44;-3.10;99.90
74822;DHT22;63353;48.702;8.884;2023-04-04T01:47:16;-3.10;99.90
74822;DHT22;63353;48.702;8.884;2023-04-04T01:49:42;-3.00;99.90
74822;DHT22;63353;48.702;8.884;2023-04-04T01:52:16;-3.00;99.90
74822;DHT22;63353;48.702;8.884;2023-04-04T01:54:42;-3.10;99.90
74822;DHT22;63353;48.702;8.884;2023-04-04T01:57:16;-3.10;99.90
74822;DHT22;63353;48.702;8.884;2023-04-04T01:59:47;-3.20;99.90
74822;DHT22;63353;48.702;8.884;2023-04-04T02:02:13;-3.20;99.90
74822;DHT22;63353;48.702;8.884;2023-04-04T02:04:42;-3.30;99.90
74822;DHT22;63353;48.702;8.884;2023-04-04T02:07:07;-3.30;99.90
74822;DHT22;63353;48.702;8.884;2023-04-04T02:09:36;-3.40;99.90
74822;DHT22;63353;48.702;8.884;2023-04-04T02:12:02;-3.50;99.90
74822;DHT22;63353;48.702;8.884;2023-04-04T02:14:31;-3.60;99.90
74822;DHT22;63353;48.702;8.884;2023-04-04T02:16:57;-3.60;99.90
74822;DHT22;63353;48.702;8.884;2023-04-04T02:19:26;-3.70;99.90
74822;DHT22;63353;48.702;8.884;2023-04-04T02:21:54;-3.70;99.90
74822;DHT22;63353;48.702;8.884;2023-04-04T02:24:24;-3.80;99.90
74822;DHT22;63353;48.702;8.884;2023-04-04T02:26:55;-3.70;99.90
74822;DHT22;63353;48.702;8.884;2023-04-04T02:29:21;-3.80;99.90
74822;DHT22;63353;48.702;8.884;2023-04-04T02:31:59;-3.80;99.90
74822;DHT22;63353;48.702;8.884;2023-04-04T02:34:25;-3.80;99.90
74822;DHT22;63353;48.702;8.884;2023-04-04T02:36:58;-3.90;99.90
74822;DHT22;63353;48.702;8.884;2023-04-04T02:39:23;-3.90;99.90
74822;DHT22;63353;48.702;8.884;2023-04-04T02:41:52;-4.00;99.90
74822;DHT22;63353;48.702;8.884;2023-04-04T02:44:27;-4.00;99.90
74822;DHT22;63353;48.702;8.884;2023-04-04T02:46:52;-4.00;99.90
74822;DHT22;63353;48.702;8.884;2023-04-04T02:49:18;-4.00;99.90
74822;DHT22;63353;48.702;8.884;2023-04-04T02:51:50;-4.00;99.90
74822;DHT22;63353;48.702;8.884;2023-04-04T02:54:22;-4.00;99.90
74822;DHT22;63353;48.702;8.884;2023-04-04T02:56:56;-4.00;99.90
74822;DHT22;63353;48.702;8.884;2023-04-04T02:59:22;-4.00;99.90
74822;DHT22;63353;48.702;8.884;2023-04-04T03:01:48;-4.00;99.90
74822;DHT22;63353;48.702;8.884;2023-04-04T03:04:13;-4.00;99.90
74822;DHT22;63353;48.702;8.884;2023-04-04T03:06:42;-4.00;99.90
74822;DHT22;63353;48.702;8.884;2023-04-04T03:09:07;-4.10;99.90
74822;DHT22;63353;48.702;8.884;2023-04-04T03:11:33;-4.10;99.90
74822;DHT22;63353;48.702;8.884;2023-04-04T03:13:59;-4.20;99.90
74822;DHT22;63353;48.702;8.884;2023-04-04T03:16:27;-4.10;99.90
74822;DHT22;63353;48.702;8.884;2023-04-04T03:18:54;-4.20;99.90
74822;DHT22;63353;48.702;8.884;2023-04-04T03:21:23;-4.20;99.90
74822;DHT22;63353;48.702;8.884;2023-04-04T03:23:54;-4.20;99.90
74822;DHT22;63353;48.702;8.884;2023-04-04T03:26:26;-4.10;99.90
74822;DHT22;63353;48.702;8.884;2023-04-04T03:28:53;-4.20;99.90
74822;DHT22;63353;48.702;8.884;2023-04-04T03:31:25;-4.20;99.90
74822;DHT22;63353;48.702;8.884;2023-04-04T03:34:00;-4.30;99.90
74822;DHT22;63353;48.702;8.884;2023-04-04T03:36:30;-4.30;99.90
74822;DHT22;63353;48.702;8.884;2023-04-04T03:38:56;-4.30;99.90
74822;DHT22;63353;48.702;8.884;2023-04-04T03:41:27;-4.40;99.90
74822;DHT22;63353;48.702;8.884;2023-04-04T03:43:56;-4.40;99.90
74822;DHT22;63353;48.702;8.884;2023-04-04T03:46:25;-4.40;99.90
74822;DHT22;63353;48.702;8.884;2023-04-04T03:48:50;-4.40;99.90
74822;DHT22;63353;48.702;8.884;2023-04-04T03:51:22;-4.50;99.90
74822;DHT22;63353;48.702;8.884;2023-04-04T03:53:48;-4.40;99.90
74822;DHT22;63353;48.702;8.884;2023-04-04T03:56:17;-4.50;99.90
74822;DHT22;63353;48.702;8.884;2023-04-04T03:58:43;-4.50;99.90
74822;DHT22;63353;48.702;8.884;2023-04-04T04:01:10;-4.50;99.90
74822;DHT22;63353;48.702;8.884;2023-04-04T04:03:35;-4.50;99.90
74822;DHT22;63353;48.702;8.884;2023-04-04T04:06:04;-4.50;99.90
74822;DHT22;63353;48.702;8.884;2023-04-04T04:08:30;-4.50;99.90
74822;DHT22;63353;48.702;8.884;2023-04-04T04:11:03;-4.50;99.90
74822;DHT22;63353;48.702;8.884;2023-04-04T04:13:28;-4.50;99.90
74822;DHT22;63353;48.702;8.884;2023-04-04T04:15:55;-4.60;99.90
74822;DHT22;63353;48.702;8.884;2023-04-04T04:18:21;-4.70;99.90
74822;DHT22;63353;48.702;8.884;2023-04-04T04:20:47;-4.60;99.90
74822;DHT22;63353;48.702;8.884;2023-04-04T04:23:12;-4.70;99.90
74822;DHT22;63353;48.702;8.884;2023-04-04T04:25:38;-4.70;99.90
74822;DHT22;63353;48.702;8.884;2023-04-04T04:28:04;-4.80;99.90
74822;DHT22;63353;48.702;8.884;2023-04-04T04:30:31;-4.80;99.90
74822;DHT22;63353;48.702;8.884;2023-04-04T04:32:56;-4.80;99.90
74822;DHT22;63353;48.702;8.884;2023-04-04T04:35:22;-4.70;99.90
74822;DHT22;63353;48.702;8.884;2023-04-04T04:37:47;-4.70;99.90
74822;DHT22;63353;48.702;8.884;2023-04-04T04:40:14;-4.60;99.90
74822;DHT22;63353;48.702;8.884;2023-04-04T04:42:44;-4.50;99.90
74822;DHT22;63353;48.702;8.884;2023-04-04T04:45:10;-4.50;99.90
74822;DHT22;63353;48.702;8.884;2023-04-04T04:47:36;-4.60;99.90
74822;DHT22;63353;48.702;8.884;2023-04-04T04:50:03;-4.40;99.90
74822;DHT22;63353;48.702;8.884;2023-04-04T04:52:29;-4.40;99.90
74822;DHT22;63353;48.702;8.884;2023-04-04T04:54:56;-4.40;99.90
74822;DHT22;63353;48.702;8.884;2023-04-04T04:57:22;-4.40;99.90
74822;DHT22;63353;48.702;8.884;2023-04-04T04:59:48;-4.50;99.90
74822;DHT22;63353;48.702;8.884;2023-04-04T05:02:14;-4.50;99.90
74822;DHT22;63353;48.702;8.884;2023-04-04T05:04:40;-4.40;99.90
74822;DHT22;63353;48.702;8.884;2023-04-04T05:07:09;-4.40;99.90
74822;DHT22;63353;48.702;8.884;2023-04-04T05:09:37;-4.40;99.90
74822;DHT22;63353;48.702;8.884;2023-04-04T05:12:03;-4.40;99.90
74822;DHT22;63353;48.702;8.884;2023-04-04T05:14:28;-4.50;99.90
74822;DHT22;63353;48.702;8.884;2023-04-04T05:16:54;-4.50;99.90
74822;DHT22;63353;48.702;8.884;2023-04-04T05:19:20;-4.50;99.90
74822;DHT22;63353;48.702;8.884;2023-04-04T05:21:45;-4.60;99.90
74822;DHT22;63353;48.702;8.884;2023-04-04T05:24:11;-4.60;99.90
74822;DHT22;63353;48.702;8.884;2023-04-04T05:26:37;-4.60;99.90
74822;DHT22;63353;48.702;8.884;2023-04-04T05:29:03;-4.60;99.90
74822;DHT22;63353;48.702;8.884;2023-04-04T05:31:31;-4.60;99.90
74822;DHT22;63353;48.702;8.884;2023-04-04T05:34:00;-4.50;99.90
74822;DHT22;63353;48.702;8.884;2023-04-04T05:36:33;-4.50;99.90
74822;DHT22;63353;48.702;8.884;2023-04-04T05:38:59;-4.40;99.90
74822;DHT22;63353;48.702;8.884;2023-04-04T05:41:28;-4.40;99.90
74822;DHT22;63353;48.702;8.884;2023-04-04T05:43:59;-4.20;99.90
74822;DHT22;63353;48.702;8.884;2023-04-04T05:46:25;-4.00;99.90
74822;DHT22;63353;48.702;8.884;2023-04-04T05:48:51;-3.90;99.90
74822;DHT22;63353;48.702;8.884;2023-04-04T05:51:17;-3.60;99.90
74822;DHT22;63353;48.702;8.884;2023-04-04T05:53:46;-3.50;99.90
74822;DHT22;63353;48.702;8.884;2023-04-04T05:56:15;-3.40;99.90
74822;DHT22;63353;48.702;8.884;2023-04-04T05:58:43;-3.20;99.90
74822;DHT22;63353;48.702;8.884;2023-04-04T06:01:13;-3.10;99.90
74822;DHT22;63353;48.702;8.884;2023-04-04T06:03:48;-3.00;99.90
74822;DHT22;63353;48.702;8.884;2023-04-04T06:06:14;-2.90;99.90
74822;DHT22;63353;48.702;8.884;2023-04-04T06:08:46;-2.80;99.90
74822;DHT22;63353;48.702;8.884;2023-04-04T06:11:11;-2.70;99.90
74822;DHT22;63353;48.702;8.884;2023-04-04T06:13:37;-2.60;99.90
74822;DHT22;63353;48.702;8.884;2023-04-04T06:16:03;-2.50;99.90
74822;DHT22;63353;48.702;8.884;2023-04-04T06:18:31;-2.40;99.90
74822;DHT22;63353;48.702;8.884;2023-04-04T06:20:57;-2.30;99.90
74822;DHT22;63353;48.702;8.884;2023-04-04T06:23:22;-2.20;99.90
74822;DHT22;63353;48.702;8.884;2023-04-04T06:25:57;-2.10;99.90
74822;DHT22;63353;48.702;8.884;2023-04-04T06:28:23;-2.00;99.90
74822;DHT22;63353;48.702;8.884;2023-04-04T06:30:49;-1.80;99.90
74822;DHT22;63353;48.702;8.884;2023-04-04T06:33:15;-1.80;99.90
74822;DHT22;63353;48.702;8.884;2023-04-04T06:35:40;-1.70;99.90
74822;DHT22;63353;48.702;8.884;2023-04-04T06:38:06;-1.50;99.90
74822;DHT22;63353;48.702;8.884;2023-04-04T06:40:33;-1.40;99.90
74822;DHT22;63353;48.702;8.884;2023-04-04T06:43:01;-1.20;99.90
74822;DHT22;63353;48.702;8.884;2023-04-04T06:45:27;-1.00;99.90
74822;DHT22;63353;48.702;8.884;2023-04-04T06:47:57;-0.80;99.90
74822;DHT22;63353;48.702;8.884;2023-04-04T06:50:22;-0.60;99.90
74822;DHT22;63353;48.702;8.884;2023-04-04T06:52:59;-0.40;99.90
74822;DHT22;63353;48.702;8.884;2023-04-04T06:55:25;-0.20;99.90
74822;DHT22;63353;48.702;8.884;2023-04-04T06:57:51;-0.10;99.90
74822;DHT22;63353;48.702;8.884;2023-04-04T07:00:17;0.20;99.90
74822;DHT22;63353;48.702;8.884;2023-04-04T07:02:49;0.20;99.90
74822;DHT22;63353;48.702;8.884;2023-04-04T07:05:17;0.50;99.90
74822;DHT22;63353;48.702;8.884;2023-04-04T07:07:55;0.60;99.90
74822;DHT22;63353;48.702;8.884;2023-04-04T07:10:25;0.70;99.90
74822;DHT22;63353;48.702;8.884;2023-04-04T07:12:54;0.90;99.90
74822;DHT22;63353;48.702;8.884;2023-04-04T07:15:19;0.90;99.90
74822;DHT22;63353;48.702;8.884;2023-04-04T07:17:48;1.10;99.90
74822;DHT22;63353;48.702;8.884;2023-04-04T07:20:14;1.30;99.90
74822;DHT22;63353;48.702;8.884;2023-04-04T07:22:40;1.40;99.90
74822;DHT22;63353;48.702;8.884;2023-04-04T07:25:07;1.50;99.90
74822;DHT22;63353;48.702;8.884;2023-04-04T07:27:39;1.60;99.90
74822;DHT22;63353;48.702;8.884;2023-04-04T07:30:09;1.70;99.90
74822;DHT22;63353;48.702;8.884;2023-04-04T07:32:38;1.60;99.90
74822;DHT22;63353;48.702;8.884;2023-04-04T07:35:07;1.70;99.90
74822;DHT22;63353;48.702;8.884;2023-04-04T07:37:36;1.80;99.90
74822;DHT22;63353;48.702;8.884;2023-04-04T07:40:09;1.90;99.90
74822;DHT22;63353;48.702;8.884;2023-04-04T07:42:34;2.10;99.90
74822;DHT22;63353;48.702;8.884;2023-04-04T07:45:00;2.20;99.90
74822;DHT22;63353;48.702;8.884;2023-04-04T07:47:29;2.40;99.90
74822;DHT22;63353;48.702;8.884;2023-04-04T07:49:57;2.40;99.90
74822;DHT22;63353;48.702;8.884;2023-04-04T07:52:23;2.30;99.90
74822;DHT22;63353;48.702;8.884;2023-04-04T07:54:52;2.50;99.90
74822;DHT22;63353;48.702;8.884;2023-04-04T07:57:20;2.50;99.90
74822;DHT22;63353;48.702;8.884;2023-04-04T07:59:49;2.70;99.90
74822;DHT22;63353;48.702;8.884;2023-04-04T08:02:20;2.80;99.90
74822;DHT22;63353;48.702;8.884;2023-04-04T08:04:46;3.00;99.90
74822;DHT22;63353;48.702;8.884;2023-04-04T08:07:12;3.10;99.90
74822;DHT22;63353;48.702;8.884;2023-04-04T08:09:40;3.40;99.90
74822;DHT22;63353;48.702;8.884;2023-04-04T08:12:06;3.60;99.90
74822;DHT22;63353;48.702;8.884;2023-04-04T08:14:38;3.70;99.90
74822;DHT22;63353;48.702;8.884;2023-04-04T08:17:04;3.60;99.90
74822;DHT22;63353;48.702;8.884;2023-04-04T08:19:42;3.90;99.90
74822;DHT22;63353;48.702;8.884;2023-04-04T08:22:14;4.10;99.90
74822;DHT22;63353;48.702;8.884;2023-04-04T08:24:39;3.90;99.90
74822;DHT22;63353;48.702;8.884;2023-04-04T08:27:08;4.20;99.90
74822;DHT22;63353;48.702;8.884;2023-04-04T08:29:33;4.20;99.90
74822;DHT22;63353;48.702;8.884;2023-04-04T08:31:59;4.50;99.90
74822;DHT22;63353;48.702;8.884;2023-04-04T08:34:25;4.90;99.90
74822;DHT22;63353;48.702;8.884;2023-04-04T08:36:51;4.50;99.90
74822;DHT22;63353;48.702;8.884;2023-04-04T08:39:23;4.50;99.90
74822;DHT22;63353;48.702;8.884;2023-04-04T08:42:03;4.80;99.90
74822;DHT22;63353;48.702;8.884;2023-04-04T08:44:33;4.90;99.90
74822;DHT22;63353;48.702;8.884;2023-04-04T08:47:01;5.10;99.90
74822;DHT22;63353;48.702;8.884;2023-04-04T08:49:37;5.00;99.90
74822;DHT22;63353;48.702;8.884;2023-04-04T08:52:04;5.20;99.90
74822;DHT22;63353;48.702;8.884;2023-04-04T08:54:36;5.60;99.90
74822;DHT22;63353;48.702;8.884;2023-04-04T08:57:03;6.00;99.90
74822;DHT22;63353;48.702;8.884;2023-04-04T08:59:31;6.40;99.90
74822;DHT22;63353;48.702;8.884;2023-04-04T09:05:08;6.30;99.90
74822;DHT22;63353;48.702;8.884;2023-04-04T09:07:38;6.40;99.90
74822;DHT22;63353;48.702;8.884;2023-04-04T09:10:10;6.60;99.90
74822;DHT22;63353;48.702;8.884;2023-04-04T09:12:41;6.40;99.90
74822;DHT22;63353;48.702;8.884;2023-04-04T09:15:09;6.30;99.90
74822;DHT22;63353;48.702;8.884;2023-04-04T09:17:37;6.10;99.90
74822;DHT22;63353;48.702;8.884;2023-04-04T09:20:15;5.80;99.90
74822;DHT22;63353;48.702;8.884;2023-04-04T09:22:49;6.10;99.90
74822;DHT22;63353;48.702;8.884;2023-04-04T09:25:21;6.60;99.90
74822;DHT22;63353;48.702;8.884;2023-04-04T09:27:47;6.40;99.90
74822;DHT22;63353;48.702;8.884;2023-04-04T09:30:17;6.70;99.90
74822;DHT22;63353;48.702;8.884;2023-04-04T09:32:46;6.80;99.90
74822;DHT22;63353;48.702;8.884;2023-04-04T09:35:18;6.60;99.90
74822;DHT22;63353;48.702;8.884;2023-04-04T09:37:44;6.90;99.90
74822;DHT22;63353;48.702;8.884;2023-04-04T09:40:11;7.10;99.90
74822;DHT22;63353;48.702;8.884;2023-04-04T09:42:44;7.20;99.90
74822;DHT22;63353;48.702;8.884;2023-04-04T09:45:10;7.30;99.90
74822;DHT22;63353;48.702;8.884;2023-04-04T09:47:44;7.50;99.90
74822;DHT22;63353;48.702;8.884;2023-04-04T09:50:20;7.70;99.90
74822;DHT22;63353;48.702;8.884;2023-04-04T09:53:11;7.80;99.90
74822;DHT22;63353;48.702;8.884;2023-04-04T09:55:50;7.60;99.90
74822;DHT22;63353;48.702;8.884;2023-04-04T09:58:29;7.90;99.90
74822;DHT22;63353;48.702;8.884;2023-04-04T10:01:01;7.80;99.90
74822;DHT22;63353;48.702;8.884;2023-04-04T10:03:28;8.00;99.90
74822;DHT22;63353;48.702;8.884;2023-04-04T10:06:04;8.20;99.90
74822;DHT22;63353;48.702;8.884;2023-04-04T10:08:31;8.40;99.90
74822;DHT22;63353;48.702;8.884;2023-04-04T10:11:04;8.60;99.90
74822;DHT22;63353;48.702;8.884;2023-04-04T10:13:31;8.60;99.90
74822;DHT22;63353;48.702;8.884;2023-04-04T10:15:58;8.40;98.80
74822;DHT22;63353;48.702;8.884;2023-04-04T10:18:32;8.60;99.90
74822;DHT22;63353;48.702;8.884;2023-04-04T10:21:00;8.60;99.90
74822;DHT22;63353;48.702;8.884;2023-04-04T10:23:32;8.90;99.90
74822;DHT22;63353;48.702;8.884;2023-04-04T10:26:02;8.40;95.10
74822;DHT22;63353;48.702;8.884;2023-04-04T10:28:27;8.30;99.90
74822;DHT22;63353;48.702;8.884;2023-04-04T10:34:23;9.10;99.90
74822;DHT22;63353;48.702;8.884;2023-04-04T10:36:52;9.30;99.90
74822;DHT22;63353;48.702;8.884;2023-04-04T10:42:06;9.10;98.00
74822;DHT22;63353;48.702;8.884;2023-04-04T10:44:42;8.90;97.10
74822;DHT22;63353;48.702;8.884;2023-04-04T10:47:21;8.60;95.00
74822;DHT22;63353;48.702;8.884;2023-04-04T10:49:51;7.60;94.30
74822;DHT22;63353;48.702;8.884;2023-04-04T10:52:21;8.10;98.40
74822;DHT22;63353;48.702;8.884;2023-04-04T10:54:50;8.50;99.10
74822;DHT22;63353;48.702;8.884;2023-04-04T10:57:20;8.90;94.20
74822;DHT22;63353;48.702;8.884;2023-04-04T11:00:10;9.00;98.10
74822;DHT22;63353;48.702;8.884;2023-04-04T11:02:57;9.30;99.90
74822;DHT22;63353;48.702;8.884;2023-04-04T11:05:53;9.60;96.40
74822;DHT22;63353;48.702;8.884;2023-04-04T11:08:28;9.80;98.60
74822;DHT22;63353;48.702;8.884;2023-04-04T11:11:00;10.10;98.30
74822;DHT22;63353;48.702;8.884;2023-04-04T11:13:33;10.40;94.40
74822;DHT22;63353;48.702;8.884;2023-04-04T11:16:11;10.50;94.80
74822;DHT22;63353;48.702;8.884;2023-04-04T11:18:58;10.50;98.60
74822;DHT22;63353;48.702;8.884;2023-04-04T11:21:31;10.50;93.30
74822;DHT22;63353;48.702;8.884;2023-04-04T11:29:02;10.30;94.70
74822;DHT22;63353;48.702;8.884;2023-04-04T11:34:12;10.50;90.50
74822;DHT22;63353;48.702;8.884;2023-04-04T11:39:28;10.50;89.20
74822;DHT22;63353;48.702;8.884;2023-04-04T11:42:13;10.20;92.90
74822;DHT22;63353;48.702;8.884;2023-04-04T11:45:03;10.60;94.10
74822;DHT22;63353;48.702;8.884;2023-04-04T11:47:32;10.60;88.70
74822;DHT22;63353;48.702;8.884;2023-04-04T11:50:06;10.40;93.10
74822;DHT22;63353;48.702;8.884;2023-04-04T11:52:40;10.80;92.00
74822;DHT22;63353;48.702;8.884;2023-04-04T11:55:17;11.10;93.70
74822;DHT22;63353;48.702;8.884;2023-04-04T11:58:09;11.20;84.30
74822;DHT22;63353;48.702;8.884;2023-04-04T12:00:38;11.30;90.50
74822;DHT22;63353;48.702;8.884;2023-04-04T12:03:05;11.40;94.00
74822;DHT22;63353;48.702;8.884;2023-04-04T12:05:34;11.70;91.70
74822;DHT22;63353;48.702;8.884;2023-04-04T12:08:00;11.70;91.20
74822;DHT22;63353;48.702;8.884;2023-04-04T12:10:29;11.90;91.10
74822;DHT22;63353;48.702;8.884;2023-04-04T12:13:05;11.20;88.90
74822;DHT22;63353;48.702;8.884;2023-04-04T12:15:33;11.00;90.70
74822;DHT22;63353;48.702;8.884;2023-04-04T12:17:59;11.20;94.70
74822;DHT22;63353;48.702;8.884;2023-04-04T12:20:25;11.40;86.60
74822;DHT22;63353;48.702;8.884;2023-04-04T12:22:51;11.30;88.70
74822;DHT22;63353;48.702;8.884;2023-04-04T12:25:20;11.40;87.00
74822;DHT22;63353;48.702;8.884;2023-04-04T12:27:47;11.40;90.30
74822;DHT22;63353;48.702;8.884;2023-04-04T12:30:19;11.30;85.40
74822;DHT22;63353;48.702;8.884;2023-04-04T12:32:46;11.20;84.70
74822;DHT22;63353;48.702;8.884;2023-04-04T12:35:15;11.60;81.20
74822;DHT22;63353;48.702;8.884;2023-04-04T12:40:22;10.90;84.80
74822;DHT22;63353;48.702;8.884;2023-04-04T12:42:51;10.80;88.10
74822;DHT22;63353;48.702;8.884;2023-04-04T12:45:21;11.00;90.40
74822;DHT22;63353;48.702;8.884;2023-04-04T12:47:54;10.70;83.80
74822;DHT22;63353;48.702;8.884;2023-04-04T12:50:23;10.50;80.20
74822;DHT22;63353;48.702;8.884;2023-04-04T12:52:54;10.20;84.40
74822;DHT22;63353;48.702;8.884;2023-04-04T12:55:30;10.20;89.10
74822;DHT22;63353;48.702;8.884;2023-04-04T12:57:59;10.60;93.50
74822;DHT22;63353;48.702;8.884;2023-04-04T13:00:28;11.40;89.90
74822;DHT22;63353;48.702;8.884;2023-04-04T13:02:57;11.20;80.90
74822;DHT22;63353;48.702;8.884;2023-04-04T13:05:24;11.70;90.30
74822;DHT22;63353;48.702;8.884;2023-04-04T13:08:03;11.80;88.90
74822;DHT22;63353;48.702;8.884;2023-04-04T13:10:29;12.20;85.20
74822;DHT22;63353;48.702;8.884;2023-04-04T13:15:23;11.80;85.70
74822;DHT22;63353;48.702;8.884;2023-04-04T13:17:49;11.90;84.20
74822;DHT22;63353;48.702;8.884;2023-04-04T13:20:17;12.20;78.00
74822;DHT22;63353;48.702;8.884;2023-04-04T13:22:49;12.30;80.40
74822;DHT22;63353;48.702;8.884;2023-04-04T13:25:15;11.80;78.10
74822;DHT22;63353;48.702;8.884;2023-04-04T13:27:44;11.90;80.30
74822;DHT22;63353;48.702;8.884;2023-04-04T13:30:09;12.10;75.00
74822;DHT22;63353;48.702;8.884;2023-04-04T13:32:35;11.90;79.70
74822;DHT22;63353;48.702;8.884;2023-04-04T13:35:01;12.10;78.50
74822;DHT22;63353;48.702;8.884;2023-04-04T13:37:29;12.50;79.90
74822;DHT22;63353;48.702;8.884;2023-04-04T13:40:01;12.90;74.90
74822;DHT22;63353;48.702;8.884;2023-04-04T13:42:29;13.30;73.10
74822;DHT22;63353;48.702;8.884;2023-04-04T13:44:56;13.80;81.80
74822;DHT22;63353;48.702;8.884;2023-04-04T13:47:23;14.60;76.00
74822;DHT22;63353;48.702;8.884;2023-04-04T13:49:51;14.80;76.90
74822;DHT22;63353;48.702;8.884;2023-04-04T13:52:17;14.70;65.70
74822;DHT22;63353;48.702;8.884;2023-04-04T13:54:43;15.50;75.80
74822;DHT22;63353;48.702;8.884;2023-04-04T13:57:11;15.60;68.30
74822;DHT22;63353;48.702;8.884;2023-04-04T13:59:37;16.90;68.00
74822;DHT22;63353;48.702;8.884;2023-04-04T14:02:14;17.40;74.80
74822;DHT22;63353;48.702;8.884;2023-04-04T14:04:40;17.60;69.00
74822;DHT22;63353;48.702;8.884;2023-04-04T14:07:08;18.00;61.30
74822;DHT22;63353;48.702;8.884;2023-04-04T14:09:34;17.50;62.80
74822;DHT22;63353;48.702;8.884;2023-04-04T14:12:00;18.30;64.10
74822;DHT22;63353;48.702;8.884;2023-04-04T14:14:28;17.60;63.10
74822;DHT22;63353;48.702;8.884;2023-04-04T14:16:54;17.80;58.50
74822;DHT22;63353;48.702;8.884;2023-04-04T14:19:19;17.80;57.40
74822;DHT22;63353;48.702;8.884;2023-04-04T14:21:54;17.50;54.60
74822;DHT22;63353;48.702;8.884;2023-04-04T14:24:20;17.90;59.00
74822;DHT22;63353;48.702;8.884;2023-04-04T14:26:46;17.60;55.30
74822;DHT22;63353;48.702;8.884;2023-04-04T14:29:11;18.50;64.50
74822;DHT22;63353;48.702;8.884;2023-04-04T14:31:40;18.40;51.80
74822;DHT22;63353;48.702;8.884;2023-04-04T14:34:06;17.70;61.50
74822;DHT22;63353;48.702;8.884;2023-04-04T14:36:34;18.30;58.10
74822;DHT22;63353;48.702;8.884;2023-04-04T14:39:00;18.40;59.10
74822;DHT22;63353;48.702;8.884;2023-04-04T14:41:26;18.20;54.30
74822;DHT22;63353;48.702;8.884;2023-04-04T14:43:52;18.60;54.30
74822;DHT22;63353;48.702;8.884;2023-04-04T14:46:18;18.90;54.50
74822;DHT22;63353;48.702;8.884;2023-04-04T14:48:44;19.50;57.90
74822;DHT22;63353;48.702;8.884;2023-04-04T14:51:09;20.20;53.70
74822;DHT22;63353;48.702;8.884;2023-04-04T14:53:35;21.30;55.00
74822;DHT22;63353;48.702;8.884;2023-04-04T14:56:04;21.20;51.30
74822;DHT22;63353;48.702;8.884;2023-04-04T14:58:30;20.70;51.30
74822;DHT22;63353;48.702;8.884;2023-04-04T15:00:59;20.90;51.30
74822;DHT22;63353;48.702;8.884;2023-04-04T15:03:25;21.30;51.80
74822;DHT22;63353;48.702;8.884;2023-04-04T15:05:51;21.00;49.00
74822;DHT22;63353;48.702;8.884;2023-04-04T15:08:20;20.30;47.10
74822;DHT22;63353;48.702;8.884;2023-04-04T15:10:48;20.30;50.40
74822;DHT22;63353;48.702;8.884;2023-04-04T15:13:39;19.70;51.50
74822;DHT22;63353;48.702;8.884;2023-04-04T15:16:05;21.20;50.50
74822;DHT22;63353;48.702;8.884;2023-04-04T15:18:31;21.00;49.30
74822;DHT22;63353;48.702;8.884;2023-04-04T15:20:57;20.50;49.30
74822;DHT22;63353;48.702;8.884;2023-04-04T15:23:23;21.10;46.40
74822;DHT22;63353;48.702;8.884;2023-04-04T15:25:50;20.70;49.90
74822;DHT22;63353;48.702;8.884;2023-04-04T15:28:18;21.00;48.80
74822;DHT22;63353;48.702;8.884;2023-04-04T15:30:44;20.60;47.50
74822;DHT22;63353;48.702;8.884;2023-04-04T15:33:10;20.30;48.90
74822;DHT22;63353;48.702;8.884;2023-04-04T15:35:35;20.10;47.90
74822;DHT22;63353;48.702;8.884;2023-04-04T15:38:01;20.00;48.20
74822;DHT22;63353;48.702;8.884;2023-04-04T15:40:26;18.70;50.50
74822;DHT22;63353;48.702;8.884;2023-04-04T15:42:52;19.50;52.00
74822;DHT22;63353;48.702;8.884;2023-04-04T15:45:18;20.30;48.00
74822;DHT22;63353;48.702;8.884;2023-04-04T15:47:44;20.30;49.70
74822;DHT22;63353;48.702;8.884;2023-04-04T15:50:10;21.10;45.70
74822;DHT22;63353;48.702;8.884;2023-04-04T15:52:42;21.50;48.80
74822;DHT22;63353;48.702;8.884;2023-04-04T15:55:14;22.30;46.80
74822;DHT22;63353;48.702;8.884;2023-04-04T15:57:44;22.60;46.30
74822;DHT22;63353;48.702;8.884;2023-04-04T16:00:19;22.90;45.80
74822;DHT22;63353;48.702;8.884;2023-04-04T16:02:45;22.20;44.40
74822;DHT22;63353;48.702;8.884;2023-04-04T16:05:11;21.10;44.70
74822;DHT22;63353;48.702;8.884;2023-04-04T16:07:42;21.30;45.90
74822;DHT22;63353;48.702;8.884;2023-04-04T16:10:08;21.40;45.20
74822;DHT22;63353;48.702;8.884;2023-04-04T16:12:34;20.70;45.30
74822;DHT22;63353;48.702;8.884;2023-04-04T16:15:05;21.20;46.50
74822;DHT22;63353;48.702;8.884;2023-04-04T16:17:31;21.60;45.10